首页
METAR-TAF:

METAR-TAF

机场 :

奥利弗·坦博国际机场

约翰内斯堡, 南非共和國

纬度: 26-08S, 经度: 028-14E, 海拔: 1694米

当前天气观测

该预报发布于1小时和2分钟前的07:00 UTC
风速8节,风向北转西北
温度 13°C
湿度 41%
气压 1030 hPa
能见度10公里或以上
1500米以下无云,无积雨云

METAR: FAOR 230700Z 34008KT CAVOK 13/00 Q1030 NOSIG

时间: 10:02 (08:02 UTC)

预报

该预报发布于4小时和2分钟前的04:00 UTC
预报有效从23日的 06点(UTC)到 24日的 12点(UTC)
风速8节,风向西北
能见度10公里或以上
1500米以下无云,无积雨云
成为
从 24日的 01点(UTC)到 24日的 03点(UTC)
风速3节,风向多变
成为
从 24日的 05点(UTC)到 24日的 07点(UTC)
风速7节,风向南转西南

TAF: FAOR 230400Z 2306/2412 31008KT CAVOK BECMG 2401/2403 VRB03KT BECMG 2405/2407 21007KT TX19/2412Z TN07/2405Z

超过4000个机场的气象观测和天气预报(METAR&TAF报告)。

可查询的气象台以黄色和红色小点在地图上表示。

将鼠标移到小点上方,可查看气象台名称。

然后点击查看天气观测和预报。

如需切换地图:点击带黑十字的绿色按钮放大地图;点击带横线的绿色按钮缩小地图;或者点击绿色箭头查看邻近地区的地图。


METAR-TAF: